createdAt,value
2018-11-28T00:01:06.649Z,0
2018-11-28T00:02:16.544Z,0
2018-11-28T00:03:26.852Z,0
2018-11-28T00:04:37.013Z,0
2018-11-28T00:05:47.219Z,0
2018-11-28T00:06:57.377Z,0
2018-11-28T00:08:07.539Z,0
2018-11-28T00:09:17.746Z,0
2018-11-28T00:10:27.909Z,0
2018-11-28T00:11:38.075Z,0
2018-11-28T00:12:48.245Z,0
2018-11-28T00:13:58.409Z,0
2018-11-28T00:15:08.668Z,0
2018-11-28T00:16:18.829Z,0
2018-11-28T00:17:28.991Z,0
2018-11-28T00:18:39.151Z,0
2018-11-28T00:19:49.310Z,0
2018-11-28T00:20:59.518Z,0
2018-11-28T00:22:09.691Z,0
2018-11-28T00:23:19.856Z,0
2018-11-28T00:24:30.020Z,0
2018-11-28T00:25:40.183Z,0
2018-11-28T00:26:50.393Z,0
2018-11-28T00:28:00.558Z,0
2018-11-28T00:29:10.719Z,0
2018-11-28T00:30:20.879Z,0
2018-11-28T00:31:31.041Z,0
2018-11-28T00:32:41.354Z,0
2018-11-28T00:33:51.512Z,0
2018-11-28T00:35:01.673Z,0
2018-11-28T00:36:11.882Z,0
2018-11-28T00:37:22.055Z,0
2018-11-28T00:38:32.371Z,0
2018-11-28T00:39:42.538Z,0
2018-11-28T00:40:52.698Z,0
2018-11-28T00:42:02.869Z,0
2018-11-28T00:43:13.027Z,0
2018-11-28T00:44:23.299Z,0
2018-11-28T00:45:33.515Z,0
2018-11-28T00:46:43.679Z,0
2018-11-28T00:47:53.838Z,0
2018-11-28T00:49:03.995Z,0
2018-11-28T00:50:14.252Z,0
2018-11-28T00:51:24.413Z,0
2018-11-28T00:52:34.569Z,0
2018-11-28T00:53:44.732Z,0
2018-11-28T00:54:54.893Z,0
2018-11-28T00:56:05.104Z,0
2018-11-28T00:57:15.264Z,0
2018-11-28T00:58:25.429Z,0
2018-11-28T00:59:35.585Z,0
2018-11-28T01:00:45.749Z,0
2018-11-28T01:01:56.059Z,0
2018-11-28T01:03:06.219Z,0
2018-11-28T01:04:16.381Z,0
2018-11-28T01:05:26.682Z,0
2018-11-28T01:06:36.842Z,0
2018-11-28T01:07:47.058Z,0
2018-11-28T01:08:57.220Z,0
2018-11-28T01:10:07.382Z,0
2018-11-28T01:11:17.543Z,0
2018-11-28T01:12:27.708Z,0
2018-11-28T01:13:37.911Z,0
2018-11-28T01:14:48.106Z,0
2018-11-28T01:15:58.264Z,0
2018-11-28T01:17:08.420Z,0
2018-11-28T01:18:18.591Z,0
2018-11-28T01:19:28.804Z,0
2018-11-28T01:20:38.964Z,0
2018-11-28T01:21:49.129Z,0
2018-11-28T01:22:59.292Z,0
2018-11-28T01:24:09.449Z,0
2018-11-28T01:25:19.664Z,0
2018-11-28T01:26:29.878Z,0
2018-11-28T01:27:40.039Z,0
2018-11-28T01:28:53.810Z,0
2018-11-28T01:30:03.974Z,0
2018-11-28T01:31:14.287Z,0
2018-11-28T01:32:24.444Z,0
2018-11-28T01:33:34.603Z,0
2018-11-28T01:34:44.768Z,0
2018-11-28T01:35:54.931Z,0
2018-11-28T01:37:05.238Z,0
2018-11-28T01:38:15.401Z,0
2018-11-28T01:39:25.565Z,0
2018-11-28T01:40:35.724Z,0
2018-11-28T01:41:45.892Z,0
2018-11-28T01:42:56.109Z,0
2018-11-28T01:44:06.268Z,0
2018-11-28T01:45:16.439Z,0
2018-11-28T01:46:26.601Z,0
2018-11-28T01:47:36.763Z,0
2018-11-28T01:48:47.074Z,0
2018-11-28T01:49:57.241Z,0
2018-11-28T01:51:07.451Z,0
2018-11-28T01:52:17.610Z,0
2018-11-28T01:53:27.772Z,0
2018-11-28T01:54:38.032Z,0
2018-11-28T01:55:48.190Z,0
2018-11-28T01:56:58.348Z,0
2018-11-28T01:58:08.505Z,0
2018-11-28T01:59:18.670Z,0
2018-11-28T02:00:28.883Z,0
2018-11-28T02:01:39.045Z,0
2018-11-28T02:02:49.208Z,0
2018-11-28T02:03:59.371Z,0
2018-11-28T02:05:09.530Z,0
2018-11-28T02:06:19.837Z,0
2018-11-28T02:07:30.003Z,0
2018-11-28T02:08:40.166Z,0
2018-11-28T02:09:50.351Z,0
2018-11-28T02:11:00.516Z,0
2018-11-28T02:12:10.728Z,0
2018-11-28T02:13:20.889Z,0
2018-11-28T02:14:31.054Z,0
2018-11-28T02:15:41.213Z,0
2018-11-28T02:16:51.373Z,0
2018-11-28T02:18:01.586Z,0
2018-11-28T02:19:11.759Z,0
2018-11-28T02:20:21.919Z,0
2018-11-28T02:21:32.076Z,0
2018-11-28T02:22:42.244Z,0
2018-11-28T02:23:52.515Z,0
2018-11-28T02:25:02.680Z,0
2018-11-28T02:26:12.844Z,0
2018-11-28T02:27:23.007Z,0
2018-11-28T02:28:33.172Z,0
2018-11-28T02:29:43.490Z,0
2018-11-28T02:30:53.652Z,0
2018-11-28T02:32:03.822Z,0
2018-11-28T02:33:13.988Z,0
2018-11-28T02:34:24.148Z,0
2018-11-28T02:35:34.361Z,0
2018-11-28T02:36:44.528Z,0
2018-11-28T02:37:54.427Z,0
2018-11-28T02:39:04.598Z,0
2018-11-28T02:40:14.765Z,0
2018-11-28T02:41:25.091Z,0
2018-11-28T02:42:35.258Z,0
2018-11-28T02:43:45.413Z,0
2018-11-28T02:44:55.581Z,0
2018-11-28T02:46:05.813Z,0
2018-11-28T02:47:16.118Z,0
2018-11-28T02:48:26.280Z,0
2018-11-28T02:49:36.447Z,0
2018-11-28T02:50:46.605Z,0
2018-11-28T02:51:56.776Z,0
2018-11-28T02:53:07.082Z,0
2018-11-28T02:54:17.245Z,0
2018-11-28T02:55:27.406Z,0
2018-11-28T02:56:37.581Z,0
2018-11-28T02:57:47.767Z,0
2018-11-28T02:58:58.141Z,0
2018-11-28T03:00:08.307Z,0
2018-11-28T03:01:18.473Z,0
2018-11-28T03:02:28.638Z,0
2018-11-28T03:03:38.800Z,0
2018-11-28T03:04:49.061Z,0
2018-11-28T03:05:59.225Z,0
2018-11-28T03:07:09.402Z,0
2018-11-28T03:08:19.569Z,0
2018-11-28T03:09:29.736Z,0
2018-11-28T03:10:40.119Z,0
2018-11-28T03:11:50.299Z,0
2018-11-28T03:13:00.470Z,0
2018-11-28T03:14:10.642Z,0
2018-11-28T03:15:20.819Z,0
2018-11-28T03:16:31.033Z,0
2018-11-28T03:17:41.193Z,0
2018-11-28T03:18:51.355Z,0
2018-11-28T03:20:01.526Z,0
2018-11-28T03:21:11.700Z,0
2018-11-28T03:22:21.911Z,0
2018-11-28T03:23:31.817Z,0
2018-11-28T03:24:42.044Z,0
2018-11-28T03:25:52.234Z,0
2018-11-28T03:27:02.394Z,0
2018-11-28T03:28:12.673Z,0
2018-11-28T03:29:22.851Z,0
2018-11-28T03:30:33.027Z,0
2018-11-28T03:31:43.217Z,0
2018-11-28T03:32:53.414Z,0
2018-11-28T03:34:03.705Z,0
2018-11-28T03:35:13.889Z,0
2018-11-28T03:36:24.059Z,0
2018-11-28T03:37:34.227Z,0
2018-11-28T03:38:44.390Z,0
2018-11-28T03:39:54.707Z,0
2018-11-28T03:41:04.877Z,0
2018-11-28T03:42:15.050Z,0
2018-11-28T03:43:25.226Z,0
2018-11-28T03:44:35.399Z,0
2018-11-28T03:45:45.711Z,0
2018-11-28T03:46:55.876Z,0
2018-11-28T03:48:06.042Z,0
2018-11-28T03:49:16.205Z,0
2018-11-28T03:50:26.386Z,0
2018-11-28T03:51:36.710Z,0
2018-11-28T03:52:46.623Z,0
2018-11-28T03:53:56.813Z,0
2018-11-28T03:55:07.002Z,0
2018-11-28T03:56:17.171Z,0
2018-11-28T03:57:27.492Z,0
2018-11-28T03:58:37.663Z,0
2018-11-28T03:59:47.849Z,0
2018-11-28T04:00:58.035Z,0
2018-11-28T04:02:08.232Z,0
2018-11-28T04:03:18.657Z,0
2018-11-28T04:04:28.822Z,0
2018-11-28T04:05:38.986Z,0
2018-11-28T04:06:49.154Z,0
2018-11-28T04:07:59.322Z,0
2018-11-28T04:09:09.598Z,0
2018-11-28T04:10:19.787Z,0
2018-11-28T04:11:29.958Z,0
2018-11-28T04:12:39.926Z,0
2018-11-28T04:13:50.111Z,0
2018-11-28T04:15:00.441Z,0
2018-11-28T04:16:10.614Z,0
2018-11-28T04:17:20.780Z,0
2018-11-28T04:18:30.946Z,0
2018-11-28T04:19:41.153Z,0
2018-11-28T04:20:51.481Z,0
2018-11-28T04:22:01.653Z,0
2018-11-28T04:23:11.812Z,0
2018-11-28T04:24:21.973Z,0
2018-11-28T04:25:32.132Z,0
2018-11-28T04:26:42.440Z,0
2018-11-28T04:27:52.608Z,0
2018-11-28T04:29:02.765Z,0
2018-11-28T04:30:12.945Z,0
2018-11-28T04:31:23.117Z,0
2018-11-28T04:32:33.396Z,0
2018-11-28T04:33:43.565Z,0
2018-11-28T04:34:53.733Z,0
2018-11-28T04:36:03.893Z,0
2018-11-28T04:37:14.068Z,0
2018-11-28T04:38:24.348Z,0
2018-11-28T04:39:34.523Z,0
2018-11-28T04:40:44.687Z,0
2018-11-28T04:41:54.908Z,0
2018-11-28T04:43:04.810Z,0
2018-11-28T04:44:15.024Z,0
2018-11-28T04:45:25.185Z,0
2018-11-28T04:46:35.346Z,0
2018-11-28T04:47:45.524Z,0
2018-11-28T04:48:55.688Z,0
2018-11-28T04:50:05.956Z,0
2018-11-28T04:51:16.140Z,0
2018-11-28T04:52:26.314Z,0
2018-11-28T04:53:36.474Z,0
2018-11-28T04:54:46.647Z,0
2018-11-28T04:55:56.990Z,0
2018-11-28T04:57:07.167Z,0
2018-11-28T04:58:17.327Z,0
2018-11-28T04:59:27.489Z,0
2018-11-28T05:00:37.654Z,0
2018-11-28T05:01:47.821Z,0
2018-11-28T05:02:57.987Z,0
2018-11-28T05:04:08.352Z,0
2018-11-28T05:05:18.514Z,0
2018-11-28T05:06:28.415Z,0
2018-11-28T05:07:38.632Z,0
2018-11-28T05:08:48.802Z,0
2018-11-28T05:09:58.972Z,0
2018-11-28T05:11:09.136Z,0
2018-11-28T05:12:19.303Z,0
2018-11-28T05:13:29.615Z,0
2018-11-28T05:14:39.854Z,0
2018-11-28T05:15:50.024Z,0
2018-11-28T05:17:00.182Z,0
2018-11-28T05:18:10.347Z,0
2018-11-28T05:19:20.555Z,0
2018-11-28T05:20:30.716Z,0
2018-11-28T05:21:40.873Z,0
2018-11-28T05:22:51.034Z,0
2018-11-28T05:24:01.193Z,0
2018-11-28T05:25:11.450Z,0
2018-11-28T05:26:21.610Z,0
2018-11-28T05:27:31.773Z,0
2018-11-28T05:28:41.934Z,0
2018-11-28T05:29:52.092Z,0
2018-11-28T05:31:02.304Z,0
2018-11-28T05:32:12.206Z,0
2018-11-28T05:33:22.380Z,0
2018-11-28T05:34:32.271Z,0
2018-11-28T05:35:42.435Z,0
2018-11-28T05:36:52.480Z,0
2018-11-28T05:38:02.656Z,0
2018-11-28T05:39:12.818Z,0
2018-11-28T05:40:22.983Z,0
2018-11-28T05:41:33.143Z,0
2018-11-28T05:42:43.456Z,0
2018-11-28T05:43:53.617Z,0
2018-11-28T05:45:03.781Z,0
2018-11-28T05:46:13.942Z,0
2018-11-28T05:47:24.105Z,0
2018-11-28T05:48:34.337Z,0
2018-11-28T05:49:44.497Z,0
2018-11-28T05:50:54.658Z,0
2018-11-28T05:52:04.822Z,0
2018-11-28T05:53:14.987Z,0
2018-11-28T05:54:25.219Z,0
2018-11-28T05:55:35.383Z,0
2018-11-28T05:56:45.546Z,0
2018-11-28T05:57:55.711Z,0
2018-11-28T05:59:05.994Z,0
2018-11-28T06:00:16.307Z,0
2018-11-28T06:01:26.476Z,0
2018-11-28T06:02:36.635Z,0
2018-11-28T06:03:46.800Z,0
2018-11-28T06:04:56.967Z,0
2018-11-28T06:06:07.294Z,0
2018-11-28T06:07:17.455Z,0
2018-11-28T06:08:27.621Z,0
2018-11-28T06:09:37.793Z,0
2018-11-28T06:10:47.955Z,0
2018-11-28T06:11:58.267Z,0
2018-11-28T06:13:08.448Z,0
2018-11-28T06:14:18.612Z,0
2018-11-28T06:15:28.500Z,0
2018-11-28T06:16:38.661Z,0
2018-11-28T06:17:48.977Z,0
2018-11-28T06:18:59.141Z,0
2018-11-28T06:20:09.308Z,0
2018-11-28T06:21:19.475Z,0
2018-11-28T06:22:29.638Z,0
2018-11-28T06:23:39.947Z,0
2018-11-28T06:24:50.110Z,0
2018-11-28T06:26:00.271Z,0
2018-11-28T06:27:10.445Z,0
2018-11-28T06:28:20.607Z,0
2018-11-28T06:29:30.921Z,0
2018-11-28T06:30:40.813Z,0
2018-11-28T06:31:50.982Z,0
2018-11-28T06:33:01.146Z,0
2018-11-28T06:34:11.317Z,0
2018-11-28T06:35:21.634Z,0
2018-11-28T06:36:31.802Z,0
2018-11-28T06:37:41.979Z,0
2018-11-28T06:38:52.148Z,0
2018-11-28T06:40:02.316Z,0
2018-11-28T06:41:12.630Z,0
2018-11-28T06:42:22.799Z,0
2018-11-28T06:43:32.956Z,0
2018-11-28T06:44:43.114Z,0
2018-11-28T06:45:53.271Z,0
2018-11-28T06:47:03.538Z,0
2018-11-28T06:48:13.698Z,0
2018-11-28T06:49:23.859Z,0
2018-11-28T06:50:34.018Z,0
2018-11-28T06:51:44.181Z,0
2018-11-28T06:52:54.395Z,0
2018-11-28T06:54:04.562Z,0
2018-11-28T06:55:14.768Z,0
2018-11-28T06:56:24.959Z,0
2018-11-28T06:57:35.117Z,0
2018-11-28T06:58:45.278Z,0
2018-11-28T06:59:55.483Z,4
2018-11-28T07:01:05.647Z,0
2018-11-28T07:02:15.805Z,0
2018-11-28T07:03:25.968Z,0
2018-11-28T07:04:36.235Z,4
2018-11-28T07:05:46.400Z,0
2018-11-28T07:06:56.561Z,4
2018-11-28T07:08:06.727Z,4
2018-11-28T07:09:16.885Z,4
2018-11-28T07:10:27.095Z,4
2018-11-28T07:11:37.253Z,4
2018-11-28T07:12:47.469Z,4
2018-11-28T07:13:57.683Z,4
2018-11-28T07:15:07.841Z,8
2018-11-28T07:16:18.057Z,12
2018-11-28T07:17:28.228Z,12
2018-11-28T07:18:38.394Z,12
2018-11-28T07:19:48.645Z,16
2018-11-28T07:20:58.892Z,16
2018-11-28T07:22:09.191Z,16
2018-11-28T07:23:19.089Z,20
2018-11-28T07:24:29.263Z,20
2018-11-28T07:25:39.424Z,24
2018-11-28T07:26:49.587Z,24
2018-11-28T07:27:59.859Z,28
2018-11-28T07:29:10.017Z,32
2018-11-28T07:30:20.239Z,28
2018-11-28T07:31:30.408Z,36
2018-11-28T07:32:40.566Z,44
2018-11-28T07:33:50.838Z,48
2018-11-28T07:35:01.004Z,52
2018-11-28T07:36:11.167Z,56
2018-11-28T07:37:21.327Z,64
2018-11-28T07:38:31.489Z,72
2018-11-28T07:39:41.761Z,76
2018-11-28T07:40:51.927Z,84
2018-11-28T07:42:02.088Z,80
2018-11-28T07:43:12.293Z,84
2018-11-28T07:44:22.543Z,88
2018-11-28T07:45:32.995Z,92
2018-11-28T07:46:43.173Z,96
2018-11-28T07:47:53.341Z,104
2018-11-28T07:49:03.504Z,112
2018-11-28T07:50:13.666Z,112
2018-11-28T07:51:23.984Z,120
2018-11-28T07:52:34.151Z,124
2018-11-28T07:53:44.314Z,132
2018-11-28T07:54:54.480Z,136
2018-11-28T07:56:04.379Z,140
2018-11-28T07:57:14.650Z,148
2018-11-28T07:58:24.823Z,152
2018-11-28T07:59:34.731Z,156
2018-11-28T08:00:44.894Z,168
2018-11-28T08:01:55.057Z,176
2018-11-28T08:03:05.378Z,184
2018-11-28T08:04:15.556Z,192
2018-11-28T08:05:25.884Z,204
2018-11-28T08:06:36.046Z,212
2018-11-28T08:07:46.215Z,220
2018-11-28T08:08:56.480Z,232
2018-11-28T08:10:06.745Z,240
2018-11-28T08:11:16.969Z,248
2018-11-28T08:12:27.170Z,264
2018-11-28T08:13:37.389Z,268
2018-11-28T08:14:47.552Z,276
2018-11-28T08:15:57.717Z,288
2018-11-28T08:17:07.892Z,300
2018-11-28T08:18:18.062Z,320
2018-11-28T08:19:31.406Z,340
2018-11-28T08:20:41.454Z,360
2018-11-28T08:21:52.607Z,380
2018-11-28T08:23:02.825Z,396
2018-11-28T08:24:12.990Z,408
2018-11-28T08:25:27.629Z,400
2018-11-28T08:26:38.193Z,404
2018-11-28T08:27:48.638Z,412
2018-11-28T08:28:58.800Z,420
2018-11-28T08:30:08.965Z,436
2018-11-28T08:31:19.132Z,448
2018-11-28T08:32:29.408Z,444
2018-11-28T08:33:39.575Z,496
2018-11-28T08:34:49.741Z,496
2018-11-28T08:35:59.908Z,504
2018-11-28T08:37:10.068Z,536
2018-11-28T08:38:20.331Z,548
2018-11-28T08:39:30.510Z,556
2018-11-28T08:40:40.679Z,576
2018-11-28T08:41:50.849Z,564
2018-11-28T08:43:01.022Z,600
2018-11-28T08:44:11.450Z,612
2018-11-28T08:45:21.878Z,608
2018-11-28T08:46:32.128Z,588
2018-11-28T08:47:42.291Z,572
2018-11-28T08:48:52.452Z,576
2018-11-28T08:50:02.621Z,592
2018-11-28T08:51:12.790Z,596
2018-11-28T08:52:22.982Z,600
2018-11-28T08:53:33.154Z,568
2018-11-28T08:54:43.321Z,528
2018-11-28T08:55:53.634Z,544
2018-11-28T08:57:04.360Z,584
2018-11-28T08:58:14.531Z,620
2018-11-28T08:59:24.432Z,608
2018-11-28T09:00:34.599Z,628
2018-11-28T09:01:44.812Z,620
2018-11-28T09:02:54.974Z,624
2018-11-28T09:04:05.146Z,616
2018-11-28T09:05:15.478Z,588
2018-11-28T09:06:25.647Z,620
2018-11-28T09:07:35.859Z,728
2018-11-28T09:08:46.023Z,752
2018-11-28T09:09:57.175Z,692
2018-11-28T09:11:07.083Z,648
2018-11-28T09:12:17.252Z,668
2018-11-28T09:13:27.526Z,812
2018-11-28T09:14:37.695Z,988
2018-11-28T09:15:47.860Z,1140
2018-11-28T09:16:58.024Z,1240
2018-11-28T09:18:08.281Z,1356
2018-11-28T09:19:18.592Z,1368
2018-11-28T09:20:28.766Z,1260
2018-11-28T09:24:02.051Z,904
2018-11-28T09:25:12.250Z,916
2018-11-28T09:26:22.430Z,956
2018-11-28T09:27:32.335Z,1060
2018-11-28T09:28:42.506Z,1140
2018-11-28T09:29:52.717Z,1040
2018-11-28T09:31:02.936Z,1116
2018-11-28T09:32:13.098Z,1240
2018-11-28T09:33:23.263Z,1348
2018-11-28T09:34:33.444Z,1400
2018-11-28T09:35:43.767Z,1480
2018-11-28T09:36:53.927Z,1576
2018-11-28T09:38:04.094Z,1648
2018-11-28T09:39:14.253Z,1716
2018-11-28T09:40:24.432Z,1736
2018-11-28T09:41:34.847Z,1768
2018-11-28T09:42:45.007Z,1788
2018-11-28T09:43:55.189Z,2024
2018-11-28T09:45:05.090Z,2192
2018-11-28T09:46:15.255Z,2164
2018-11-28T09:47:25.515Z,2056
2018-11-28T09:48:35.141Z,1976
2018-11-28T09:49:45.299Z,1840
2018-11-28T09:50:55.465Z,1800
2018-11-28T09:52:05.631Z,1876
2018-11-28T09:53:15.946Z,1864
2018-11-28T09:54:26.108Z,1836
2018-11-28T09:55:36.286Z,1696
2018-11-28T09:56:46.452Z,1652
2018-11-28T09:57:56.692Z,1592
2018-11-28T09:59:06.911Z,1628
2018-11-28T10:00:17.078Z,1624
2018-11-28T10:01:27.248Z,1676
2018-11-28T10:02:37.408Z,1776
2018-11-28T10:03:47.567Z,1656
2018-11-28T10:05:02.645Z,1636
2018-11-28T10:06:13.038Z,1388
2018-11-28T10:07:23.198Z,1364
2018-11-28T10:08:33.360Z,1372
2018-11-28T10:09:43.529Z,1332
2018-11-28T10:10:53.705Z,1352
2018-11-28T10:12:03.868Z,1412
2018-11-28T10:13:14.029Z,1424
2018-11-28T10:14:24.193Z,1416
2018-11-28T10:15:40.404Z,1460
2018-11-28T10:16:53.648Z,1524
2018-11-28T10:18:04.760Z,1576
2018-11-28T10:19:14.926Z,1620
2018-11-28T10:20:25.090Z,1712
2018-11-28T10:21:35.256Z,1804
2018-11-28T10:22:45.522Z,1836
2018-11-28T10:23:55.686Z,1932
2018-11-28T10:25:05.856Z,1992
2018-11-28T10:26:16.031Z,1876
2018-11-28T10:27:26.194Z,1956
2018-11-28T10:28:36.458Z,1756
2018-11-28T10:29:46.353Z,1576
2018-11-28T10:30:56.515Z,1552
2018-11-28T10:32:06.684Z,1580
2018-11-28T10:33:16.873Z,1528
2018-11-28T10:34:32.003Z,1520
2018-11-28T10:35:42.164Z,1604
2018-11-28T10:36:52.333Z,1652
2018-11-28T10:38:02.493Z,1580
2018-11-28T10:39:12.659Z,1588
2018-11-28T10:40:22.868Z,1616
2018-11-28T10:41:33.041Z,1672
2018-11-28T10:42:43.246Z,1600
2018-11-28T10:43:53.415Z,1676
2018-11-28T10:45:03.592Z,1748
2018-11-28T10:46:13.875Z,1780
2018-11-28T10:47:24.051Z,2024
2018-11-28T10:48:34.232Z,2196
2018-11-28T10:49:44.414Z,2144
2018-11-28T10:50:54.591Z,2260
2018-11-28T10:52:05.294Z,2348
2018-11-28T10:53:15.201Z,2268
2018-11-28T10:54:25.382Z,2260
2018-11-28T10:55:35.567Z,2148
2018-11-28T10:56:45.744Z,2068
2018-11-28T10:57:55.706Z,1940
2018-11-28T10:59:05.886Z,1816
2018-11-28T11:00:16.069Z,1608
2018-11-28T11:01:26.358Z,1536
2018-11-28T11:02:36.724Z,1452
2018-11-28T11:03:46.908Z,1528
2018-11-28T11:04:57.119Z,1444
2018-11-28T11:06:07.333Z,1284
2018-11-28T11:07:17.551Z,1180
2018-11-28T11:08:27.730Z,1244
2018-11-28T11:09:37.915Z,1272
2018-11-28T11:10:48.498Z,1424
2018-11-28T11:11:58.677Z,1392
2018-11-28T11:13:08.859Z,1564
2018-11-28T11:14:19.047Z,1512
2018-11-28T11:15:29.224Z,1480
2018-11-28T11:16:39.398Z,1520
2018-11-28T11:17:49.578Z,1516
2018-11-28T11:18:59.757Z,1532
2018-11-28T11:20:10.087Z,1464
2018-11-28T11:21:20.273Z,1412
2018-11-28T11:22:30.187Z,1324
2018-11-28T11:23:40.393Z,1272
2018-11-28T11:24:50.572Z,1196
2018-11-28T11:26:00.753Z,1132
2018-11-28T11:27:11.031Z,1208
2018-11-28T11:28:21.213Z,1292
2018-11-28T11:29:31.391Z,1496
2018-11-28T11:30:41.569Z,1700
2018-11-28T11:31:51.766Z,1704
2018-11-28T11:33:02.046Z,1572
2018-11-28T11:34:12.225Z,1416
2018-11-28T11:35:22.829Z,1156
2018-11-28T11:36:33.006Z,1072
2018-11-28T11:37:43.188Z,980
2018-11-28T11:38:53.365Z,1020
2018-11-28T11:40:04.681Z,1084
2018-11-28T11:41:14.865Z,1228
2018-11-28T11:42:25.388Z,1320
2018-11-28T11:43:35.565Z,1456
2018-11-28T11:44:45.850Z,1508
2018-11-28T11:45:56.032Z,1492
2018-11-28T11:47:06.226Z,1572
2018-11-28T11:48:16.144Z,1672
2018-11-28T11:49:26.329Z,1324
2018-11-28T11:50:36.614Z,1272
2018-11-28T11:51:46.799Z,1180
2018-11-28T11:52:57.012Z,1164
2018-11-28T11:54:07.196Z,1188
2018-11-28T11:55:18.422Z,1332
2018-11-28T11:56:28.712Z,1392
2018-11-28T11:57:38.897Z,1428
2018-11-28T11:58:49.133Z,1348
2018-11-28T11:59:59.317Z,1248
2018-11-28T12:01:09.877Z,1180
2018-11-28T12:02:20.056Z,1108
2018-11-28T12:03:30.242Z,1212
2018-11-28T12:04:40.424Z,1288
2018-11-28T12:05:50.651Z,1468
2018-11-28T12:07:00.902Z,1516
2018-11-28T12:08:11.186Z,1560
2018-11-28T12:09:21.367Z,1324
2018-11-28T12:10:31.554Z,1220
2018-11-28T12:11:41.474Z,1208
2018-11-28T12:12:56.653Z,1308
2018-11-28T12:14:06.881Z,1452
2018-11-28T12:15:17.081Z,1296
2018-11-28T12:16:29.061Z,1128
2018-11-28T12:17:39.245Z,1088
2018-11-28T12:18:49.428Z,996
2018-11-28T12:19:59.715Z,976
2018-11-28T12:21:09.902Z,1144
2018-11-28T12:22:20.091Z,1248
2018-11-28T12:23:30.278Z,1300
2018-11-28T12:24:40.459Z,1348
2018-11-28T12:25:50.636Z,1400
2018-11-28T12:27:00.818Z,1436
2018-11-28T12:28:11.000Z,1496
2018-11-28T12:29:21.931Z,1604
2018-11-28T12:30:32.160Z,1708
2018-11-28T12:31:42.391Z,1648
2018-11-28T12:32:52.579Z,1436
2018-11-28T12:34:02.773Z,1464
2018-11-28T12:35:12.963Z,1676
2018-11-28T12:36:23.148Z,2080
2018-11-28T12:37:33.331Z,2264
2018-11-28T12:38:43.628Z,2184
2018-11-28T12:39:53.815Z,2208
2018-11-28T12:41:03.737Z,2376
2018-11-28T12:42:13.930Z,2128
2018-11-28T12:43:24.173Z,1920
2018-11-28T12:44:34.357Z,1888
2018-11-28T12:45:44.548Z,1860
2018-11-28T12:46:54.730Z,1804
2018-11-28T12:48:04.920Z,1728
2018-11-28T12:49:15.201Z,1656
2018-11-28T12:50:25.389Z,1732
2018-11-28T12:51:35.586Z,1672
2018-11-28T12:52:45.763Z,1604
2018-11-28T12:53:55.987Z,1612
2018-11-28T12:55:06.169Z,1528
2018-11-28T12:56:16.347Z,1500
2018-11-28T12:57:26.568Z,1512
2018-11-28T12:58:36.750Z,1460
2018-11-28T12:59:46.929Z,1468
2018-11-28T13:00:57.207Z,1408
2018-11-28T13:02:07.395Z,1428
2018-11-28T13:03:17.578Z,1376
2018-11-28T13:04:27.771Z,1512
2018-11-28T13:05:37.947Z,1452
2018-11-28T13:06:48.179Z,1336
2018-11-28T13:07:58.358Z,1260
2018-11-28T13:09:08.536Z,1176
2018-11-28T13:10:18.762Z,1144
2018-11-28T13:11:28.939Z,1108
2018-11-28T13:12:39.115Z,1132
2018-11-28T13:13:49.288Z,1192
2018-11-28T13:14:59.463Z,1180
2018-11-28T13:16:09.652Z,1200
2018-11-28T13:17:19.827Z,1172
2018-11-28T13:18:30.015Z,1116
2018-11-28T13:19:39.926Z,1108
2018-11-28T13:20:50.469Z,1072
2018-11-28T13:22:00.650Z,1088
2018-11-28T13:23:10.566Z,1040
2018-11-28T13:24:20.852Z,948
2018-11-28T13:25:31.027Z,928
2018-11-28T13:26:41.201Z,920
2018-11-28T13:27:51.386Z,916
2018-11-28T13:29:01.567Z,912
2018-11-28T13:30:11.852Z,924
2018-11-28T13:31:22.039Z,920
2018-11-28T13:32:32.220Z,920
2018-11-28T13:33:42.399Z,872
2018-11-28T13:34:52.597Z,860
2018-11-28T13:36:02.781Z,832
2018-11-28T13:37:13.004Z,780
2018-11-28T13:38:22.907Z,748
2018-11-28T13:39:33.112Z,692
2018-11-28T13:40:43.293Z,664
2018-11-28T13:41:53.479Z,616
2018-11-28T13:43:03.658Z,568
2018-11-28T13:44:13.846Z,552
2018-11-28T13:45:24.024Z,556
2018-11-28T13:46:34.215Z,552
2018-11-28T13:47:44.123Z,556
2018-11-28T13:48:54.301Z,524
2018-11-28T13:50:04.484Z,500
2018-11-28T13:51:14.659Z,484
2018-11-28T13:52:24.836Z,476
2018-11-28T13:53:35.008Z,448
2018-11-28T13:56:29.745Z,352
2018-11-28T13:58:13.175Z,292
2018-11-28T13:59:23.350Z,272
2018-11-28T14:00:33.529Z,248
2018-11-28T14:01:43.705Z,232
2018-11-28T14:02:53.890Z,208
2018-11-28T14:04:04.070Z,188
2018-11-28T14:05:14.355Z,180
2018-11-28T14:06:24.530Z,176
2018-11-28T14:07:34.709Z,152
2018-11-28T14:08:44.968Z,140
2018-11-28T14:09:55.146Z,124
2018-11-28T14:11:05.425Z,108
2018-11-28T14:12:15.602Z,100
2018-11-28T14:13:25.560Z,88
2018-11-28T14:14:35.782Z,80
2018-11-28T14:15:45.955Z,80
2018-11-28T14:16:56.226Z,72
2018-11-28T14:18:06.405Z,64
2018-11-28T14:19:16.816Z,56
2018-11-28T14:20:27.063Z,56
2018-11-28T14:21:37.253Z,56
2018-11-28T14:22:47.539Z,56
2018-11-28T14:23:57.713Z,52
2018-11-28T14:25:07.888Z,48
2018-11-28T14:26:17.797Z,44
2018-11-28T14:27:27.975Z,40
2018-11-28T14:28:38.277Z,36
2018-11-28T14:29:48.455Z,32
2018-11-28T14:30:58.631Z,32
2018-11-28T14:32:08.819Z,28
2018-11-28T14:33:19.017Z,24
2018-11-28T14:34:29.246Z,24
2018-11-28T14:35:39.421Z,20
2018-11-28T14:36:49.677Z,16
2018-11-28T14:37:59.879Z,16
2018-11-28T14:39:10.099Z,12
2018-11-28T14:40:20.429Z,12
2018-11-28T14:41:30.605Z,12
2018-11-28T14:42:41.134Z,8
2018-11-28T14:43:51.347Z,8
2018-11-28T14:45:01.521Z,8
2018-11-28T14:46:11.800Z,8
2018-11-28T14:47:21.972Z,8
2018-11-28T14:48:32.144Z,4
2018-11-28T14:49:42.415Z,4
2018-11-28T14:50:52.685Z,4
2018-11-28T14:52:03.024Z,0
2018-11-28T14:53:13.205Z,0
2018-11-28T14:54:23.380Z,4
2018-11-28T14:55:33.555Z,4
2018-11-28T14:56:43.734Z,4
2018-11-28T14:57:54.008Z,0
2018-11-28T14:59:04.311Z,0
2018-11-28T15:00:14.492Z,0
2018-11-28T15:01:24.669Z,0
2018-11-28T15:02:34.849Z,0
2018-11-28T15:03:44.857Z,0
2018-11-28T15:04:55.041Z,0
2018-11-28T15:06:05.224Z,0
2018-11-28T15:07:15.447Z,0
2018-11-28T15:08:25.624Z,0
2018-11-28T15:09:35.932Z,0
2018-11-28T15:10:46.185Z,0
2018-11-28T15:11:56.359Z,0
2018-11-28T15:13:06.533Z,0
2018-11-28T15:14:16.707Z,0
2018-11-28T15:15:26.941Z,0
2018-11-28T15:16:37.116Z,0
2018-11-28T15:17:47.329Z,0
2018-11-28T15:18:57.581Z,0
2018-11-28T15:20:07.758Z,0
2018-11-28T15:21:18.029Z,0
2018-11-28T15:22:28.211Z,0
2018-11-28T15:23:38.384Z,0
2018-11-28T15:24:48.583Z,0
2018-11-28T15:25:58.758Z,0
2018-11-28T15:27:09.083Z,0
2018-11-28T15:28:19.267Z,0
2018-11-28T15:29:29.449Z,0
2018-11-28T15:30:39.630Z,0
2018-11-28T15:31:49.834Z,0
2018-11-28T15:33:00.468Z,0
2018-11-28T15:34:10.662Z,0
2018-11-28T15:35:20.849Z,0
2018-11-28T15:36:31.036Z,0
2018-11-28T15:37:41.217Z,0
2018-11-28T15:38:51.548Z,0
2018-11-28T15:40:03.383Z,0
2018-11-28T15:41:13.565Z,0
2018-11-28T15:42:23.742Z,0
2018-11-28T15:43:33.919Z,0
2018-11-28T15:44:44.208Z,0
2018-11-28T15:45:54.391Z,0
2018-11-28T15:47:04.580Z,0
2018-11-28T15:48:14.755Z,0
2018-11-28T15:49:24.670Z,0
2018-11-28T15:50:35.000Z,0
2018-11-28T15:51:45.178Z,0
2018-11-28T15:52:55.357Z,0
2018-11-28T15:54:05.535Z,0
2018-11-28T15:55:15.719Z,0
2018-11-28T15:56:26.040Z,0
2018-11-28T15:57:36.221Z,0
2018-11-28T15:58:46.394Z,0
2018-11-28T15:59:56.593Z,0
2018-11-28T16:01:06.774Z,0
2018-11-28T16:02:17.005Z,0
2018-11-28T16:03:27.197Z,0
2018-11-28T16:04:37.374Z,0
2018-11-28T16:05:47.549Z,0
2018-11-28T16:06:57.727Z,0
2018-11-28T16:08:08.012Z,0
2018-11-28T16:09:18.194Z,0
2018-11-28T16:10:28.379Z,0
2018-11-28T16:11:38.557Z,0
2018-11-28T16:12:48.737Z,0
2018-11-28T16:13:58.964Z,0
2018-11-28T16:15:09.213Z,0
2018-11-28T16:16:19.488Z,0
2018-11-28T16:17:29.664Z,0
2018-11-28T16:18:39.849Z,0
2018-11-28T16:19:50.075Z,0
2018-11-28T16:21:00.263Z,0
2018-11-28T16:22:10.452Z,0
2018-11-28T16:23:20.667Z,0
2018-11-28T16:24:30.924Z,0
2018-11-28T16:25:41.179Z,0
2018-11-28T16:26:51.378Z,0
2018-11-28T16:28:01.568Z,0
2018-11-28T16:29:11.811Z,0
2018-11-28T16:30:22.008Z,0
2018-11-28T16:31:32.343Z,0
2018-11-28T16:32:42.532Z,0
2018-11-28T16:33:52.722Z,0
2018-11-28T16:35:02.910Z,0
2018-11-28T16:36:13.103Z,0
2018-11-28T16:37:23.406Z,0
2018-11-28T16:38:33.322Z,0
2018-11-28T16:39:43.509Z,0
2018-11-28T16:40:53.684Z,0
2018-11-28T16:42:03.864Z,0
2018-11-28T16:43:14.185Z,0
2018-11-28T16:44:24.361Z,0